Friday, February 23, 2018, 6:37 PM GMT
Back to Local

CWNC, Cobourg, Ont.

Location: , , Canada Lat: 43.95
Local Time: 6:37 PM GMT (18:37 GMT) Lon: -78.167
Time Zone: GMT Elev: 255 ft

Show me the last for .
Show Decoded

2018-02-23 18:00 METAR CWNC 231800Z AUTO 10008KT 02/01 RMK AO1 4PAST HR SOG 01 8049 SLP198 P0002
                 T00180005 50004 =
2018-02-23 17:00 METAR CWNC 231700Z AUTO 09009KT 02/M00 RMK AO1 PRESFR SOG 01 6059 PK WND
                 10019/1615 SLP217 T00171002 =
2018-02-23 16:00 METAR CWNC 231600Z AUTO 10010KT 01/M00 RMK AO1 SOG 01 6049 PK WND 12020/1501
                 SLP239 T00131003 =
2018-02-23 15:00 METAR CWNC 231500Z AUTO 10011G17KT M00/M01 RMK AO1 PRESFR SOG 01 8055 PK WND
                 10020/1412 SLP248 T10041007 =
2018-02-23 14:00 METAR CWNC 231400Z AUTO 10010G19KT M00/M02 RMK AO1 SOG 01 7037 PK WND 09021/1328
                 SLP277 T10031018 =
2018-02-23 13:00 METAR CWNC 231300Z AUTO 10012G21KT M01/M03 RMK AO1 SOG 01 6043 PK WND 10021/1224
                 SLP288 T10081029 =
2018-02-23 12:00 METAR CWNC 231200Z AUTO 10011G17KT M01/M03 RMK AO1 SOG 01 8037 PK WND 12018/1125
                 SLP303 T10081034 =
2018-02-23 11:00 METAR CWNC 231100Z AUTO 09008KT M01/M05 RMK AO1 SOG 01 8042 SLP314 T10051053 =
2018-02-23 10:00 METAR CWNC 231000Z AUTO 09008KT M03/M08 RMK AO1 SOG 01 7034 SLP332 T10261083 =
2018-02-23 09:00 METAR CWNC 230900Z AUTO 09006KT M03/M10 RMK AO1 SOG 01 8036 SLP341 T10291103 =
2018-02-23 08:00 METAR CWNC 230800Z AUTO 09004KT M03/M11 RMK AO1 SOG 01 8024 SLP357 T10291112 =
2018-02-23 07:00 METAR CWNC 230700Z AUTO 09005KT M03/M11 RMK AO1 SOG 01 8020 SLP366 T10301109 =
2018-02-23 06:00 METAR CWNC 230600Z AUTO 08006KT M03/M10 RMK AO1 SOG 01 6014 SLP377 T10281099 =
2018-02-23 05:00 METAR CWNC 230500Z AUTO 09007KT M02/M10 RMK AO1 SOG 01 8007 SLP381 T10241098 =
2018-02-23 04:00 METAR CWNC 230400Z AUTO 08006KT M02/M09 RMK AO1 SOG 01 8001 SLP386 T10211094 =
2018-02-23 03:00 METAR CWNC 230300Z AUTO 08003KT M02/M08 RMK AO1 SOG 01 3006 SLP391 T10241079 =
2018-02-23 02:00 METAR CWNC 230200Z AUTO 07003KT M02/M08 RMK AO1 SOG 01 1006 SLP388 T10221082 =
2018-02-23 01:00 METAR CWNC 230100Z AUTO 07003KT M02/M08 RMK AO1 SOG 01 3005 SLP387 T10171082 =
2018-02-23 00:00 METAR CWNC 230000Z AUTO 08003KT M01/M08 RMK AO1 SOG 01 3005 SLP385 T10101080
                 50002 =
2018-02-22 23:00 METAR CWNC 222300Z AUTO 06003KT M00/M08 RMK AO1 SOG 01 6002 SLP382 T10031078
                 50002 =
2018-02-22 22:00 METAR CWNC 222200Z AUTO 08004KT 01/M08 RMK AO1 SOG 01 5008 SLP382 T00081079
                 50002 =
2018-02-22 21:00 METAR CWNC 222100Z AUTO 09005KT 01/M08 RMK AO1 2PAST HR SOG 01 8013 SLP380 P0001
                 T00101078 50002 =
2018-02-22 20:00 METAR CWNC 222000Z AUTO 07003KT 01/M07 RMK AO1 SOG 01 8012 SLP384 T00051071 =
2018-02-22 19:00 METAR CWNC 221900Z AUTO 04005KT 01/M08 RMK AO1 SOG 01 8003 SLP390 T00061083 =

Support USWX by starting your Amazon purchase here.